createdAt,value
2023-05-22T00:02:10.595Z,6.88
2023-05-22T00:04:59.072Z,6.85
2023-05-22T00:07:46.235Z,7.22
2023-05-22T00:10:32.382Z,6.45
2023-05-22T00:13:18.014Z,6.65
2023-05-22T00:16:04.446Z,6.40
2023-05-22T00:18:50.458Z,6.80
2023-05-22T00:21:37.684Z,6.65
2023-05-22T00:24:26.597Z,6.50
2023-05-22T00:30:01.442Z,6.88
2023-05-22T00:32:47.952Z,6.65
2023-05-22T00:35:34.792Z,7.03
2023-05-22T00:38:35.602Z,6.90
2023-05-22T00:41:24.655Z,6.38
2023-05-22T00:44:11.949Z,6.82
2023-05-22T00:46:58.075Z,7.28
2023-05-22T00:49:46.642Z,7.00
2023-05-22T00:52:34.624Z,6.95
2023-05-22T00:55:20.684Z,6.55
2023-05-22T00:58:11.750Z,6.82
2023-05-22T01:00:57.647Z,7.10
2023-05-22T01:03:47.334Z,6.88
2023-05-22T01:06:34.473Z,7.13
2023-05-22T01:09:26.056Z,6.70
2023-05-22T01:12:46.877Z,5.97
2023-05-22T01:15:41.883Z,7.13
2023-05-22T01:19:08.895Z,7.38
2023-05-22T01:22:31.241Z,7.75
2023-05-22T01:25:36.102Z,6.45
2023-05-22T01:28:41.482Z,7.22
2023-05-22T01:31:31.933Z,7.78
2023-05-22T01:34:18.951Z,6.93
2023-05-22T01:37:06.383Z,7.15
2023-05-22T01:39:52.913Z,8.07
2023-05-22T01:42:41.756Z,7.25
2023-05-22T01:45:28.228Z,6.93
2023-05-22T01:48:14.050Z,6.90
2023-05-22T01:51:29.698Z,7.35
2023-05-22T01:54:33.324Z,7.53
2023-05-22T01:57:34.165Z,7.47
2023-05-22T02:00:22.716Z,7.22
2023-05-22T02:03:19.336Z,7.45
2023-05-22T02:06:14.090Z,7.88
2023-05-22T02:09:03.216Z,7.03
2023-05-22T02:14:36.862Z,6.38
2023-05-22T02:17:23.452Z,7.00
2023-05-22T02:20:15.749Z,6.65
2023-05-22T02:23:03.119Z,6.57
2023-05-22T02:25:49.509Z,6.80
2023-05-22T02:28:35.904Z,6.95
2023-05-22T02:31:22.216Z,7.07
2023-05-22T02:34:08.177Z,7.30
2023-05-22T02:36:54.483Z,7.43
2023-05-22T02:39:40.800Z,7.25
2023-05-22T02:42:28.808Z,6.90
2023-05-22T02:45:15.359Z,7.55
2023-05-22T02:48:03.962Z,6.47
2023-05-22T02:50:54.508Z,6.38
2023-05-22T02:53:41.802Z,6.18
2023-05-22T02:56:29.025Z,6.47
2023-05-22T02:59:14.737Z,6.78
2023-05-22T03:02:00.791Z,6.75
2023-05-22T03:04:46.996Z,7.00
2023-05-22T03:07:33.221Z,6.72
2023-05-22T03:10:21.839Z,6.30
2023-05-22T03:13:08.579Z,7.18
2023-05-22T03:15:54.916Z,6.72
2023-05-22T03:18:41.449Z,6.72
2023-05-22T03:21:27.733Z,6.60
2023-05-22T03:24:13.875Z,7.18
2023-05-22T03:27:01.251Z,7.22
2023-05-22T03:29:55.341Z,7.63
2023-05-22T03:32:45.257Z,7.88
2023-05-22T03:35:31.576Z,7.75
2023-05-22T03:38:17.446Z,7.47
2023-05-22T03:41:03.969Z,7.20
2023-05-22T03:43:50.225Z,7.18
2023-05-22T03:46:36.620Z,6.97
2023-05-22T03:49:27.542Z,8.20
2023-05-22T03:55:02.197Z,6.45
2023-05-22T03:57:48.382Z,6.72
2023-05-22T04:00:35.073Z,7.50
2023-05-22T04:06:11.083Z,7.25
2023-05-22T04:09:01.366Z,7.45
2023-05-22T04:11:50.194Z,7.15
2023-05-22T04:14:36.747Z,7.82
2023-05-22T04:17:23.426Z,7.47
2023-05-22T04:20:12.641Z,7.55
2023-05-22T04:25:45.816Z,7.07
2023-05-22T04:28:31.799Z,7.30
2023-05-22T04:31:20.676Z,7.80
2023-05-22T04:34:17.806Z,7.40
2023-05-22T04:37:06.646Z,6.63
2023-05-22T04:39:58.374Z,7.13
2023-05-22T04:42:44.965Z,8.00
2023-05-22T04:45:33.809Z,7.95
2023-05-22T04:48:26.329Z,7.55
2023-05-22T04:51:13.171Z,7.78
2023-05-22T04:54:01.837Z,7.40
2023-05-22T04:56:49.764Z,7.25
2023-05-22T04:59:38.299Z,7.85
2023-05-22T05:02:34.347Z,7.60
2023-05-22T05:05:20.777Z,7.10
2023-05-22T05:08:10.239Z,7.68
2023-05-22T05:10:56.461Z,8.05
2023-05-22T05:13:44.433Z,8.63
2023-05-22T05:16:30.796Z,8.00
2023-05-22T05:19:17.716Z,7.85
2023-05-22T05:22:07.232Z,7.60
2023-05-22T05:25:03.840Z,7.72
2023-05-22T05:27:49.693Z,7.95
2023-05-22T05:30:39.622Z,8.32
2023-05-22T05:33:44.454Z,8.23
2023-05-22T05:36:47.383Z,7.70
2023-05-22T05:39:34.403Z,7.28
2023-05-22T05:42:22.460Z,7.13
2023-05-22T05:45:09.928Z,9.00
2023-05-22T05:47:56.315Z,7.93
2023-05-22T05:50:43.542Z,7.95
2023-05-22T05:53:29.744Z,7.38
2023-05-22T05:56:17.723Z,8.40
2023-05-22T05:59:05.827Z,7.93
2023-05-22T06:02:12.022Z,7.72
2023-05-22T06:04:59.322Z,7.50
2023-05-22T06:07:48.458Z,8.23
2023-05-22T06:10:34.878Z,8.43
2023-05-22T06:13:31.130Z,8.30
2023-05-22T06:16:18.170Z,8.23
2023-05-22T06:19:04.852Z,8.27
2023-05-22T06:21:53.526Z,7.97
2023-05-22T06:27:32.168Z,8.02
2023-05-22T06:33:26.289Z,8.30
2023-05-22T06:36:13.218Z,8.15
2023-05-22T06:38:58.853Z,8.68
2023-05-22T06:42:05.141Z,7.75
2023-05-22T06:45:11.305Z,7.70
2023-05-22T06:48:06.568Z,8.63
2023-05-22T06:50:56.584Z,8.23
2023-05-22T06:53:42.615Z,8.30
2023-05-22T06:56:36.028Z,8.85
2023-05-22T06:59:25.469Z,8.18
2023-05-22T07:02:23.282Z,8.45
2023-05-22T07:05:31.757Z,7.68
2023-05-22T07:08:19.881Z,8.85
2023-05-22T07:11:07.706Z,8.20
2023-05-22T07:13:54.124Z,8.40
2023-05-22T07:16:41.859Z,8.45
2023-05-22T07:19:31.835Z,7.97
2023-05-22T07:22:22.085Z,9.30
2023-05-22T07:25:09.496Z,8.95
2023-05-22T07:27:59.370Z,8.43
2023-05-22T07:30:46.016Z,8.57
2023-05-22T07:33:32.092Z,9.27
2023-05-22T07:36:19.123Z,9.20
2023-05-22T07:39:05.503Z,9.30
2023-05-22T07:41:57.946Z,9.65
2023-05-22T07:44:48.443Z,9.98
2023-05-22T07:47:36.427Z,10.00
2023-05-22T07:50:23.129Z,10.35
2023-05-22T07:53:09.761Z,12.18
2023-05-22T07:56:00.708Z,11.73
2023-05-22T07:58:49.475Z,11.30
2023-05-22T08:01:44.465Z,11.23
2023-05-22T08:04:32.218Z,12.15
2023-05-22T08:10:16.489Z,9.40
2023-05-22T08:13:06.267Z,9.13
2023-05-22T08:16:00.317Z,8.93
2023-05-22T08:18:50.852Z,8.23
2023-05-22T08:21:37.917Z,8.93
2023-05-22T08:24:29.033Z,8.70
2023-05-22T08:27:20.290Z,9.38
2023-05-22T08:30:07.929Z,8.45
2023-05-22T08:33:16.496Z,8.60
2023-05-22T08:36:02.796Z,8.00
2023-05-22T08:38:49.906Z,7.70
2023-05-22T08:41:35.887Z,8.07
2023-05-22T08:44:22.182Z,7.97
2023-05-22T08:47:14.207Z,8.63
2023-05-22T08:50:00.890Z,8.43
2023-05-22T08:52:57.664Z,8.73
2023-05-22T08:55:44.643Z,8.05
2023-05-22T08:58:33.758Z,8.32
2023-05-22T09:01:23.844Z,7.82
2023-05-22T09:04:10.266Z,7.38
2023-05-22T09:06:56.014Z,8.25
2023-05-22T09:09:42.426Z,8.35
2023-05-22T09:12:28.439Z,8.75
2023-05-22T09:15:16.575Z,7.90
2023-05-22T09:18:07.042Z,8.63
2023-05-22T09:20:53.320Z,8.25
2023-05-22T09:23:39.718Z,8.35
2023-05-22T09:26:29.766Z,8.20
2023-05-22T09:29:15.815Z,8.13
2023-05-22T09:32:03.472Z,7.28
2023-05-22T09:34:51.374Z,9.68
2023-05-22T09:37:37.985Z,9.32
2023-05-22T09:40:29.400Z,8.32
2023-05-22T09:43:18.262Z,8.80
2023-05-22T09:46:04.637Z,8.40
2023-05-22T09:51:48.712Z,8.23
2023-05-22T09:54:36.264Z,8.25
2023-05-22T09:57:25.616Z,8.35
2023-05-22T10:00:18.656Z,7.97
2023-05-22T10:03:19.270Z,8.20
2023-05-22T10:06:06.570Z,9.15
2023-05-22T10:09:05.680Z,8.27
2023-05-22T10:11:59.463Z,8.77
2023-05-22T10:14:46.440Z,8.55
2023-05-22T10:17:32.586Z,8.68
2023-05-22T10:20:20.315Z,8.52
2023-05-22T10:23:08.101Z,8.98
2023-05-22T10:25:55.399Z,8.00
2023-05-22T10:28:52.056Z,8.48
2023-05-22T10:32:20.010Z,8.38
2023-05-22T10:35:18.095Z,8.07
2023-05-22T10:38:46.935Z,8.15
2023-05-22T10:41:33.961Z,7.40
2023-05-22T10:44:20.241Z,8.30
2023-05-22T10:47:11.897Z,8.45
2023-05-22T10:50:24.434Z,7.63
2023-05-22T10:53:23.221Z,7.93
2023-05-22T10:56:19.614Z,8.07
2023-05-22T10:59:08.322Z,8.73
2023-05-22T11:02:01.754Z,7.68
2023-05-22T11:04:51.180Z,7.45
2023-05-22T11:07:43.648Z,7.78
2023-05-22T11:10:53.812Z,8.88
2023-05-22T11:14:11.513Z,7.80
2023-05-22T11:17:01.890Z,7.75
2023-05-22T11:20:05.667Z,8.25
2023-05-22T11:23:08.699Z,9.18
2023-05-22T11:25:55.816Z,7.45
2023-05-22T11:28:42.190Z,8.32
2023-05-22T11:31:29.821Z,8.63
2023-05-22T11:34:17.072Z,8.23
2023-05-22T11:37:03.278Z,8.23
2023-05-22T11:39:58.014Z,7.93
2023-05-22T11:42:44.563Z,8.30
2023-05-22T11:45:31.957Z,6.82
2023-05-22T11:48:43.355Z,7.10
2023-05-22T11:51:35.227Z,6.95
2023-05-22T11:55:25.908Z,6.55
2023-05-22T11:58:16.617Z,5.80
2023-05-22T12:01:27.724Z,5.55
2023-05-22T12:04:16.479Z,5.80
2023-05-22T12:07:14.774Z,5.63
2023-05-22T12:10:08.632Z,5.47
2023-05-22T12:12:59.865Z,5.80
2023-05-22T12:15:57.962Z,5.85
2023-05-22T12:30:43.408Z,5.63
2023-05-22T12:35:52.811Z,5.10
2023-05-22T12:41:25.820Z,5.72
2023-05-22T12:43:27.590Z,4.93
2023-05-22T12:46:30.990Z,5.25
2023-05-22T12:49:28.957Z,5.80
2023-05-22T12:52:22.902Z,5.13
2023-05-22T12:55:11.823Z,5.88
2023-05-22T12:58:00.344Z,5.35
2023-05-22T13:00:50.024Z,5.43
2023-05-22T13:03:38.637Z,5.68
2023-05-22T13:06:43.475Z,4.90
2023-05-22T13:10:23.631Z,4.40
2023-05-22T13:16:13.560Z,4.13
2023-05-22T13:25:11.704Z,5.88
2023-05-22T13:28:03.307Z,6.85
2023-05-22T13:30:55.766Z,5.72
2023-05-22T13:33:49.036Z,4.95
2023-05-22T13:36:40.651Z,4.57
2023-05-22T13:39:35.159Z,4.80
2023-05-22T13:42:31.688Z,5.10
2023-05-22T13:45:22.545Z,5.13
2023-05-22T13:48:08.817Z,5.35
2023-05-22T13:51:11.116Z,5.13
2023-05-22T13:54:15.832Z,5.50
2023-05-22T13:57:16.587Z,5.20
2023-05-22T14:00:13.934Z,5.28
2023-05-22T14:03:09.483Z,5.03
2023-05-22T14:05:56.645Z,5.32
2023-05-22T14:08:42.781Z,5.38
2023-05-22T14:11:31.732Z,5.22
2023-05-22T14:17:11.664Z,4.97
2023-05-22T14:20:00.158Z,4.53
2023-05-22T14:23:23.572Z,5.18
2023-05-22T14:26:11.947Z,4.90
2023-05-22T14:29:01.214Z,5.90
2023-05-22T14:31:51.861Z,5.27
2023-05-22T14:34:38.108Z,5.10
2023-05-22T14:37:23.885Z,5.88
2023-05-22T14:40:14.748Z,5.38
2023-05-22T14:43:01.058Z,5.50
2023-05-22T14:45:46.990Z,5.82
2023-05-22T14:48:33.400Z,6.55
2023-05-22T14:51:22.210Z,6.28
2023-05-22T14:54:08.483Z,5.78
2023-05-22T14:56:55.023Z,5.50
2023-05-22T14:59:46.055Z,5.28
2023-05-22T15:02:37.403Z,4.65
2023-05-22T15:08:28.344Z,4.55
2023-05-22T15:20:47.707Z,5.13
2023-05-22T15:23:35.849Z,5.07
2023-05-22T15:26:21.958Z,4.63
2023-05-22T15:29:08.398Z,4.90
2023-05-22T15:31:54.920Z,5.20
2023-05-22T15:34:41.235Z,4.80
2023-05-22T15:37:31.576Z,5.30
2023-05-22T15:40:22.887Z,5.22
2023-05-22T15:43:09.265Z,5.50
2023-05-22T15:45:55.195Z,4.70
2023-05-22T15:48:42.115Z,4.97
2023-05-22T15:51:35.720Z,4.60
2023-05-22T15:54:24.234Z,5.00
2023-05-22T15:57:10.111Z,4.87
2023-05-22T15:59:58.836Z,4.88
2023-05-22T16:02:48.644Z,5.10
2023-05-22T16:05:45.239Z,5.38
2023-05-22T16:08:31.450Z,5.00
2023-05-22T16:11:18.061Z,4.63
2023-05-22T16:23:42.473Z,4.78
2023-05-22T16:31:39.398Z,5.38
2023-05-22T16:34:25.608Z,5.55
2023-05-22T16:37:15.535Z,5.47
2023-05-22T16:40:02.269Z,5.53
2023-05-22T16:42:49.193Z,6.00
2023-05-22T16:45:38.241Z,5.47
2023-05-22T16:48:24.651Z,5.50
2023-05-22T16:56:44.610Z,5.18
2023-05-22T17:00:36.925Z,5.47
2023-05-22T17:03:27.313Z,4.53
2023-05-22T17:06:13.756Z,4.45
2023-05-22T17:08:59.929Z,5.35
2023-05-22T17:11:46.698Z,5.40
2023-05-22T17:14:39.740Z,5.15
2023-05-22T17:17:27.343Z,4.88
2023-05-22T17:20:13.964Z,5.28
2023-05-22T17:23:03.548Z,4.90
2023-05-22T17:25:52.570Z,5.00
2023-05-22T17:28:52.447Z,5.10
2023-05-22T17:31:48.207Z,5.25
2023-05-22T17:34:47.656Z,5.25
2023-05-22T17:37:44.820Z,5.28
2023-05-22T17:40:43.908Z,4.95
2023-05-22T17:43:40.666Z,5.47
2023-05-22T17:46:29.268Z,5.60
2023-05-22T17:49:17.939Z,5.32
2023-05-22T17:52:07.879Z,5.43
2023-05-22T17:54:57.532Z,6.15
2023-05-22T17:57:43.748Z,4.95
2023-05-22T18:00:30.716Z,5.70
2023-05-22T18:03:38.924Z,5.65
2023-05-22T18:06:28.383Z,5.43
2023-05-22T18:09:21.290Z,5.10
2023-05-22T18:12:38.314Z,6.15
2023-05-22T18:15:31.560Z,5.20
2023-05-22T18:18:28.181Z,6.10
2023-05-22T18:21:16.526Z,5.60
2023-05-22T18:24:09.309Z,5.50
2023-05-22T19:45:59.773Z,5.35
2023-05-22T19:48:53.052Z,5.45
2023-05-22T19:52:48.657Z,5.65
2023-05-22T19:55:38.011Z,5.97
2023-05-22T19:58:30.098Z,5.53
2023-05-22T20:16:04.869Z,5.75
2023-05-22T20:19:33.680Z,5.05
2023-05-22T20:28:27.360Z,5.88
2023-05-22T20:31:41.812Z,6.18
2023-05-22T20:34:50.033Z,5.82
2023-05-22T20:38:00.932Z,6.10
2023-05-22T20:41:07.731Z,5.88
2023-05-22T20:44:08.655Z,5.55
2023-05-22T20:47:37.558Z,5.60
2023-05-22T20:51:26.310Z,5.80
2023-05-22T20:54:36.969Z,5.35
2023-05-22T20:57:34.560Z,6.00
2023-05-22T21:01:05.385Z,6.30
2023-05-22T21:03:56.563Z,6.15
2023-05-22T21:06:50.901Z,6.13
2023-05-22T21:09:40.970Z,6.13
2023-05-22T21:12:38.657Z,6.30
2023-05-22T21:15:48.764Z,6.93
2023-05-22T21:18:56.233Z,6.40
2023-05-22T21:22:03.503Z,6.03
2023-05-22T21:26:14.041Z,6.82
2023-05-22T21:29:24.870Z,6.40
2023-05-22T21:32:29.174Z,6.70
2023-05-22T21:35:58.802Z,6.20
2023-05-22T21:39:13.686Z,7.53
2023-05-22T21:42:14.522Z,6.68
2023-05-22T21:45:10.685Z,6.68
2023-05-22T21:48:16.139Z,6.50
2023-05-22T21:51:23.687Z,6.53
2023-05-22T21:54:29.688Z,6.55
2023-05-22T21:57:31.363Z,6.43
2023-05-22T22:00:42.550Z,6.57
2023-05-22T22:03:44.232Z,7.30
2023-05-22T22:06:37.616Z,7.18
2023-05-22T22:09:37.364Z,6.57
2023-05-22T22:12:27.933Z,7.10
2023-05-22T22:15:26.570Z,7.25
2023-05-22T22:18:28.697Z,6.78
2023-05-22T22:21:47.927Z,6.35
2023-05-22T22:25:14.767Z,7.13
2023-05-22T22:31:55.865Z,6.75
2023-05-22T22:34:53.709Z,6.57
2023-05-22T22:38:10.658Z,6.65
2023-05-22T22:42:10.259Z,6.63
2023-05-22T22:46:02.626Z,6.55
2023-05-22T22:49:31.986Z,7.32
2023-05-22T22:53:12.263Z,7.10
2023-05-22T22:56:29.990Z,6.93
2023-05-22T23:00:03.720Z,6.57
2023-05-22T23:03:20.953Z,7.20
2023-05-22T23:07:19.325Z,6.95
2023-05-22T23:10:29.113Z,7.50
2023-05-22T23:14:12.447Z,7.55
